Denhoff, North Dakota
Current Conditions -  °F | °C
As of 9:15 AM on Monday 24 Nov 2014 (Local Time) from K5H4 Reporting Station
Clear Clear  
Wind Chill: -13°   Ceiling: Unl
Heat Index:   Visibility: 10mi
Dew Point:   Wind: 15mph
Humidity: 85%   Direction: 320°NW
Pressure: 29.86"   Gusts: 21mph
Location:  47.48°N, 100.26°W
Report Text: K5H4 241515Z AUTO 32013G18KT 10SM CLR M15/M17 A2986 RMK AO2
Loading
Personal Weather Stations






























Interactive Weather Map New forecast layout! Learn more

10-Day Weather Forecast

Advertisements
Track Severe Weather on mobile